CYCG

Castlegar / West Kootenay Regional Airport

Castlegar, British Columbia, Canada
METAR CYCG 232224Z 19008G16KT 6SM -SN SCT026 OVC042 M05/M11 A3022 RMK SC4SC4 SLP266
Observed Flight Rules
Feb-23 @ 22:24 UTC (9 minutes ago) Visual Flight Rules
Wind Visibility Clouds Conditions
190° at 8 knots
 Gusting to 16 knots
6 miles
  • Scattered at 2,600' AGL
  • Overcast at 4,200' AGL
  • Light Snow
Temperatures Readings
Current -5°C / 23°F
Dewpoint -11°C / 12°F
Humidity 63%
Altimeter 30.22" Hg
Pressure 1026.6 hPa
Elevation 495
METAR CYCG 232224Z 19008G16KT 6SM -SN SCT026 OVC042 M05/M11 A3022 RMK SC4SC4 SLP266
Observed Flight Rules
Feb-23 @ 22:24 UTC
(9 minutes ago)
VFR
Wind Visibility
190° at 8 knots
 Gusting to 16 knots
6 miles
Clouds
  • Scattered at 2,600' AGL
  • Overcast at 4,200' AGL
Conditions
  • Light Snow
Temperature Dewpoint
-5°C / 23°F -11°C / 12°F
Humidity Altimeter Pressure
63% 30.22" Hg 1026.6 hPa